sensor_id;sensor_type;location;lat;lon;timestamp;P1;durP1;ratioP1;P2;durP2;ratioP2
10761;SDS011;5433;50.862;4.320;2023-08-01T00:01:23;2.67;;;2.25;;
10761;SDS011;5433;50.862;4.320;2023-08-01T00:03:49;4.22;;;2.30;;
10761;SDS011;5433;50.862;4.320;2023-08-01T00:06:15;2.95;;;2.20;;
10761;SDS011;5433;50.862;4.320;2023-08-01T00:08:42;2.95;;;2.10;;
10761;SDS011;5433;50.862;4.320;2023-08-01T00:11:07;2.70;;;2.35;;
10761;SDS011;5433;50.862;4.320;2023-08-01T00:13:35;3.80;;;2.30;;
10761;SDS011;5433;50.862;4.320;2023-08-01T00:16:01;2.75;;;2.08;;
10761;SDS011;5433;50.862;4.320;2023-08-01T00:18:27;3.83;;;2.30;;
10761;SDS011;5433;50.862;4.320;2023-08-01T00:20:53;3.65;;;2.47;;
10761;SDS011;5433;50.862;4.320;2023-08-01T00:23:19;3.83;;;2.65;;
10761;SDS011;5433;50.862;4.320;2023-08-01T00:25:45;2.83;;;2.30;;
10761;SDS011;5433;50.862;4.320;2023-08-01T00:28:16;2.67;;;2.42;;
10761;SDS011;5433;50.862;4.320;2023-08-01T00:30:42;4.43;;;2.95;;
10761;SDS011;5433;50.862;4.320;2023-08-01T00:33:08;5.15;;;2.83;;
10761;SDS011;5433;50.862;4.320;2023-08-01T00:35:34;5.50;;;3.15;;
10761;SDS011;5433;50.862;4.320;2023-08-01T00:38:00;3.30;;;2.50;;
10761;SDS011;5433;50.862;4.320;2023-08-01T00:40:33;4.55;;;2.63;;
10761;SDS011;5433;50.862;4.320;2023-08-01T00:42:59;7.20;;;2.90;;
10761;SDS011;5433;50.862;4.320;2023-08-01T00:45:25;3.80;;;2.97;;
10761;SDS011;5433;50.862;4.320;2023-08-01T00:47:52;6.40;;;3.10;;
10761;SDS011;5433;50.862;4.320;2023-08-01T00:50:18;4.32;;;3.00;;
10761;SDS011;5433;50.862;4.320;2023-08-01T00:52:45;4.50;;;2.80;;
10761;SDS011;5433;50.862;4.320;2023-08-01T00:55:12;4.15;;;3.10;;
10761;SDS011;5433;50.862;4.320;2023-08-01T00:57:38;5.18;;;3.13;;
10761;SDS011;5433;50.862;4.320;2023-08-01T01:00:04;4.90;;;3.00;;
10761;SDS011;5433;50.862;4.320;2023-08-01T01:02:30;6.13;;;3.50;;
10761;SDS011;5433;50.862;4.320;2023-08-01T01:04:56;5.30;;;3.50;;
10761;SDS011;5433;50.862;4.320;2023-08-01T01:07:22;6.68;;;3.53;;
10761;SDS011;5433;50.862;4.320;2023-08-01T01:09:50;5.00;;;3.60;;
10761;SDS011;5433;50.862;4.320;2023-08-01T01:12:16;5.18;;;3.92;;
10761;SDS011;5433;50.862;4.320;2023-08-01T01:14:42;5.95;;;3.33;;
10761;SDS011;5433;50.862;4.320;2023-08-01T01:17:08;4.70;;;3.83;;
10761;SDS011;5433;50.862;4.320;2023-08-01T01:19:34;6.22;;;4.05;;
10761;SDS011;5433;50.862;4.320;2023-08-01T01:22:00;6.63;;;4.13;;
10761;SDS011;5433;50.862;4.320;2023-08-01T01:24:27;6.18;;;3.47;;
10761;SDS011;5433;50.862;4.320;2023-08-01T01:26:54;6.60;;;3.92;;
10761;SDS011;5433;50.862;4.320;2023-08-01T01:29:20;6.95;;;4.00;;
10761;SDS011;5433;50.862;4.320;2023-08-01T01:31:49;6.55;;;3.78;;
10761;SDS011;5433;50.862;4.320;2023-08-01T01:34:15;7.47;;;4.03;;
10761;SDS011;5433;50.862;4.320;2023-08-01T01:36:45;6.93;;;4.40;;
10761;SDS011;5433;50.862;4.320;2023-08-01T01:39:11;8.65;;;4.40;;
10761;SDS011;5433;50.862;4.320;2023-08-01T01:41:37;6.55;;;4.43;;
10761;SDS011;5433;50.862;4.320;2023-08-01T01:44:03;9.80;;;4.50;;
10761;SDS011;5433;50.862;4.320;2023-08-01T01:46:29;8.60;;;4.60;;
10761;SDS011;5433;50.862;4.320;2023-08-01T01:48:55;6.93;;;4.50;;
10761;SDS011;5433;50.862;4.320;2023-08-01T01:51:22;8.27;;;4.57;;
10761;SDS011;5433;50.862;4.320;2023-08-01T01:53:48;8.25;;;4.85;;
10761;SDS011;5433;50.862;4.320;2023-08-01T01:56:14;6.82;;;4.95;;
10761;SDS011;5433;50.862;4.320;2023-08-01T01:58:40;9.60;;;4.93;;
10761;SDS011;5433;50.862;4.320;2023-08-01T02:01:06;7.40;;;4.63;;
10761;SDS011;5433;50.862;4.320;2023-08-01T02:03:32;7.47;;;4.93;;
10761;SDS011;5433;50.862;4.320;2023-08-01T02:05:58;7.05;;;5.00;;
10761;SDS011;5433;50.862;4.320;2023-08-01T02:08:24;9.77;;;5.18;;
10761;SDS011;5433;50.862;4.320;2023-08-01T02:10:50;8.95;;;5.40;;
10761;SDS011;5433;50.862;4.320;2023-08-01T02:13:16;8.23;;;4.88;;
10761;SDS011;5433;50.862;4.320;2023-08-01T02:15:42;8.93;;;5.18;;
10761;SDS011;5433;50.862;4.320;2023-08-01T02:18:08;8.18;;;5.18;;
10761;SDS011;5433;50.862;4.320;2023-08-01T02:20:34;12.25;;;5.53;;
10761;SDS011;5433;50.862;4.320;2023-08-01T02:23:00;8.50;;;5.60;;
10761;SDS011;5433;50.862;4.320;2023-08-01T02:25:26;8.98;;;5.70;;
10761;SDS011;5433;50.862;4.320;2023-08-01T02:27:52;9.05;;;5.20;;
10761;SDS011;5433;50.862;4.320;2023-08-01T02:30:18;9.68;;;5.63;;
10761;SDS011;5433;50.862;4.320;2023-08-01T02:32:44;7.53;;;5.55;;
10761;SDS011;5433;50.862;4.320;2023-08-01T02:35:10;8.57;;;5.68;;
10761;SDS011;5433;50.862;4.320;2023-08-01T02:37:36;9.85;;;5.80;;
10761;SDS011;5433;50.862;4.320;2023-08-01T02:40:03;7.95;;;5.80;;
10761;SDS011;5433;50.862;4.320;2023-08-01T02:42:32;10.50;;;6.00;;
10761;SDS011;5433;50.862;4.320;2023-08-01T02:44:58;9.57;;;5.95;;
10761;SDS011;5433;50.862;4.320;2023-08-01T02:47:24;10.45;;;6.25;;
10761;SDS011;5433;50.862;4.320;2023-08-01T02:49:50;13.27;;;6.00;;
10761;SDS011;5433;50.862;4.320;2023-08-01T02:52:16;10.88;;;6.15;;
10761;SDS011;5433;50.862;4.320;2023-08-01T02:54:42;7.50;;;5.30;;
10761;SDS011;5433;50.862;4.320;2023-08-01T02:57:08;10.20;;;6.22;;
10761;SDS011;5433;50.862;4.320;2023-08-01T02:59:34;12.15;;;6.43;;
10761;SDS011;5433;50.862;4.320;2023-08-01T03:02:00;9.82;;;6.20;;
10761;SDS011;5433;50.862;4.320;2023-08-01T03:04:26;10.80;;;6.03;;
10761;SDS011;5433;50.862;4.320;2023-08-01T03:06:52;11.52;;;6.65;;
10761;SDS011;5433;50.862;4.320;2023-08-01T03:09:18;10.07;;;6.10;;
10761;SDS011;5433;50.862;4.320;2023-08-01T03:11:44;15.07;;;6.65;;
10761;SDS011;5433;50.862;4.320;2023-08-01T03:14:10;13.90;;;6.90;;
10761;SDS011;5433;50.862;4.320;2023-08-01T03:16:36;12.13;;;7.10;;
10761;SDS011;5433;50.862;4.320;2023-08-01T03:19:02;10.90;;;6.50;;
10761;SDS011;5433;50.862;4.320;2023-08-01T03:21:32;12.05;;;6.60;;
10761;SDS011;5433;50.862;4.320;2023-08-01T03:23:58;10.38;;;6.50;;
10761;SDS011;5433;50.862;4.320;2023-08-01T03:26:24;10.98;;;6.70;;
10761;SDS011;5433;50.862;4.320;2023-08-01T03:28:53;11.88;;;6.65;;
10761;SDS011;5433;50.862;4.320;2023-08-01T03:31:19;11.98;;;6.57;;
10761;SDS011;5433;50.862;4.320;2023-08-01T03:33:45;12.88;;;6.40;;
10761;SDS011;5433;50.862;4.320;2023-08-01T03:36:11;11.25;;;6.57;;
10761;SDS011;5433;50.862;4.320;2023-08-01T03:38:37;14.82;;;7.00;;
10761;SDS011;5433;50.862;4.320;2023-08-01T03:41:03;13.38;;;6.20;;
10761;SDS011;5433;50.862;4.320;2023-08-01T03:43:29;13.60;;;6.88;;
10761;SDS011;5433;50.862;4.320;2023-08-01T03:45:55;10.32;;;5.85;;
10761;SDS011;5433;50.862;4.320;2023-08-01T03:48:24;12.57;;;6.25;;
10761;SDS011;5433;50.862;4.320;2023-08-01T03:50:50;12.57;;;6.50;;
10761;SDS011;5433;50.862;4.320;2023-08-01T03:53:16;15.15;;;6.18;;
10761;SDS011;5433;50.862;4.320;2023-08-01T03:55:43;12.43;;;6.25;;
10761;SDS011;5433;50.862;4.320;2023-08-01T03:58:09;11.00;;;6.38;;
10761;SDS011;5433;50.862;4.320;2023-08-01T04:00:35;12.93;;;6.88;;
10761;SDS011;5433;50.862;4.320;2023-08-01T04:03:01;13.75;;;6.55;;
10761;SDS011;5433;50.862;4.320;2023-08-01T04:05:28;14.70;;;7.05;;
10761;SDS011;5433;50.862;4.320;2023-08-01T04:07:54;11.55;;;6.32;;
10761;SDS011;5433;50.862;4.320;2023-08-01T04:10:23;10.70;;;6.38;;
10761;SDS011;5433;50.862;4.320;2023-08-01T04:12:49;13.63;;;6.55;;
10761;SDS011;5433;50.862;4.320;2023-08-01T04:15:15;12.57;;;6.45;;
10761;SDS011;5433;50.862;4.320;2023-08-01T04:17:41;14.07;;;7.10;;
10761;SDS011;5433;50.862;4.320;2023-08-01T04:20:07;13.85;;;7.10;;
10761;SDS011;5433;50.862;4.320;2023-08-01T04:22:33;14.02;;;6.60;;
10761;SDS011;5433;50.862;4.320;2023-08-01T04:25:00;10.55;;;6.45;;
10761;SDS011;5433;50.862;4.320;2023-08-01T04:27:26;12.20;;;6.72;;
10761;SDS011;5433;50.862;4.320;2023-08-01T04:29:52;13.05;;;7.13;;
10761;SDS011;5433;50.862;4.320;2023-08-01T04:32:19;14.77;;;7.30;;
10761;SDS011;5433;50.862;4.320;2023-08-01T04:34:45;13.93;;;6.78;;
10761;SDS011;5433;50.862;4.320;2023-08-01T04:37:11;12.52;;;6.72;;
10761;SDS011;5433;50.862;4.320;2023-08-01T04:39:37;12.63;;;6.80;;
10761;SDS011;5433;50.862;4.320;2023-08-01T04:42:03;14.27;;;7.10;;
10761;SDS011;5433;50.862;4.320;2023-08-01T04:44:29;13.18;;;6.93;;
10761;SDS011;5433;50.862;4.320;2023-08-01T04:46:55;12.18;;;7.07;;
10761;SDS011;5433;50.862;4.320;2023-08-01T04:49:21;12.45;;;6.90;;
10761;SDS011;5433;50.862;4.320;2023-08-01T04:51:48;13.90;;;6.85;;
10761;SDS011;5433;50.862;4.320;2023-08-01T04:54:14;12.88;;;6.82;;
10761;SDS011;5433;50.862;4.320;2023-08-01T04:56:40;13.55;;;7.75;;
10761;SDS011;5433;50.862;4.320;2023-08-01T04:59:06;15.13;;;7.43;;
10761;SDS011;5433;50.862;4.320;2023-08-01T05:01:32;12.93;;;7.05;;
10761;SDS011;5433;50.862;4.320;2023-08-01T05:03:58;14.48;;;6.95;;
10761;SDS011;5433;50.862;4.320;2023-08-01T05:06:24;12.65;;;7.22;;
10761;SDS011;5433;50.862;4.320;2023-08-01T05:08:50;12.20;;;7.05;;
10761;SDS011;5433;50.862;4.320;2023-08-01T05:11:16;12.82;;;6.53;;
10761;SDS011;5433;50.862;4.320;2023-08-01T05:13:42;13.88;;;6.30;;
10761;SDS011;5433;50.862;4.320;2023-08-01T05:16:08;10.32;;;6.10;;
10761;SDS011;5433;50.862;4.320;2023-08-01T05:18:34;13.05;;;6.22;;
10761;SDS011;5433;50.862;4.320;2023-08-01T05:21:00;14.73;;;6.13;;
10761;SDS011;5433;50.862;4.320;2023-08-01T05:23:26;14.30;;;6.00;;
10761;SDS011;5433;50.862;4.320;2023-08-01T05:25:52;12.27;;;5.63;;
10761;SDS011;5433;50.862;4.320;2023-08-01T05:28:18;13.13;;;6.00;;
10761;SDS011;5433;50.862;4.320;2023-08-01T05:30:44;13.25;;;6.38;;
10761;SDS011;5433;50.862;4.320;2023-08-01T05:33:10;13.52;;;6.57;;
10761;SDS011;5433;50.862;4.320;2023-08-01T05:35:36;12.10;;;6.97;;
10761;SDS011;5433;50.862;4.320;2023-08-01T05:38:02;13.07;;;6.22;;
10761;SDS011;5433;50.862;4.320;2023-08-01T05:40:28;11.98;;;6.28;;
10761;SDS011;5433;50.862;4.320;2023-08-01T05:42:54;13.13;;;6.00;;
10761;SDS011;5433;50.862;4.320;2023-08-01T05:45:20;12.55;;;6.38;;
10761;SDS011;5433;50.862;4.320;2023-08-01T05:47:46;11.30;;;6.13;;
10761;SDS011;5433;50.862;4.320;2023-08-01T05:50:12;14.50;;;6.30;;
10761;SDS011;5433;50.862;4.320;2023-08-01T05:52:38;11.32;;;6.03;;
10761;SDS011;5433;50.862;4.320;2023-08-01T05:55:04;13.50;;;6.40;;
10761;SDS011;5433;50.862;4.320;2023-08-01T05:57:30;14.95;;;6.05;;
10761;SDS011;5433;50.862;4.320;2023-08-01T05:59:56;15.05;;;7.05;;
10761;SDS011;5433;50.862;4.320;2023-08-01T06:02:22;14.32;;;5.95;;
10761;SDS011;5433;50.862;4.320;2023-08-01T06:04:48;12.85;;;5.70;;
10761;SDS011;5433;50.862;4.320;2023-08-01T06:07:14;11.95;;;5.40;;
10761;SDS011;5433;50.862;4.320;2023-08-01T06:09:40;13.60;;;5.72;;
10761;SDS011;5433;50.862;4.320;2023-08-01T06:12:06;11.60;;;5.40;;
10761;SDS011;5433;50.862;4.320;2023-08-01T06:14:32;10.75;;;5.10;;
10761;SDS011;5433;50.862;4.320;2023-08-01T06:16:58;12.68;;;5.75;;
10761;SDS011;5433;50.862;4.320;2023-08-01T06:19:24;11.73;;;5.07;;
10761;SDS011;5433;50.862;4.320;2023-08-01T06:21:50;13.20;;;5.75;;
10761;SDS011;5433;50.862;4.320;2023-08-01T06:24:16;12.75;;;5.80;;
10761;SDS011;5433;50.862;4.320;2023-08-01T06:26:43;11.02;;;5.28;;
10761;SDS011;5433;50.862;4.320;2023-08-01T06:29:08;10.85;;;5.03;;
10761;SDS011;5433;50.862;4.320;2023-08-01T06:31:34;10.57;;;4.78;;
10761;SDS011;5433;50.862;4.320;2023-08-01T06:34:00;12.63;;;5.55;;
10761;SDS011;5433;50.862;4.320;2023-08-01T06:36:26;12.73;;;5.72;;
10761;SDS011;5433;50.862;4.320;2023-08-01T06:38:52;15.70;;;5.78;;
10761;SDS011;5433;50.862;4.320;2023-08-01T06:41:18;16.90;;;5.93;;
10761;SDS011;5433;50.862;4.320;2023-08-01T06:43:44;10.35;;;5.57;;
10761;SDS011;5433;50.862;4.320;2023-08-01T06:46:10;10.30;;;5.30;;
10761;SDS011;5433;50.862;4.320;2023-08-01T06:48:36;10.88;;;5.90;;
10761;SDS011;5433;50.862;4.320;2023-08-01T06:51:02;12.82;;;5.70;;
10761;SDS011;5433;50.862;4.320;2023-08-01T06:53:28;11.30;;;5.40;;
10761;SDS011;5433;50.862;4.320;2023-08-01T06:55:54;17.08;;;6.15;;
10761;SDS011;5433;50.862;4.320;2023-08-01T06:58:20;13.93;;;5.93;;
10761;SDS011;5433;50.862;4.320;2023-08-01T07:00:47;8.73;;;5.63;;
10761;SDS011;5433;50.862;4.320;2023-08-01T07:03:14;9.52;;;5.68;;
10761;SDS011;5433;50.862;4.320;2023-08-01T07:05:42;13.77;;;5.78;;
10761;SDS011;5433;50.862;4.320;2023-08-01T07:08:08;11.35;;;5.63;;
10761;SDS011;5433;50.862;4.320;2023-08-01T07:10:34;11.20;;;5.60;;
10761;SDS011;5433;50.862;4.320;2023-08-01T07:13:00;11.20;;;5.25;;
10761;SDS011;5433;50.862;4.320;2023-08-01T07:15:28;10.40;;;5.45;;
10761;SDS011;5433;50.862;4.320;2023-08-01T07:17:54;10.55;;;5.32;;
10761;SDS011;5433;50.862;4.320;2023-08-01T07:20:21;13.95;;;5.35;;
10761;SDS011;5433;50.862;4.320;2023-08-01T07:22:47;8.95;;;4.50;;
10761;SDS011;5433;50.862;4.320;2023-08-01T07:25:13;10.45;;;5.18;;
10761;SDS011;5433;50.862;4.320;2023-08-01T07:27:40;7.82;;;4.82;;
10761;SDS011;5433;50.862;4.320;2023-08-01T07:30:15;10.48;;;4.78;;
10761;SDS011;5433;50.862;4.320;2023-08-01T07:32:41;11.40;;;5.07;;
10761;SDS011;5433;50.862;4.320;2023-08-01T07:35:08;10.60;;;5.15;;
10761;SDS011;5433;50.862;4.320;2023-08-01T07:37:34;11.02;;;4.90;;
10761;SDS011;5433;50.862;4.320;2023-08-01T07:40:02;11.85;;;5.68;;
10761;SDS011;5433;50.862;4.320;2023-08-01T07:42:28;11.95;;;4.90;;
10761;SDS011;5433;50.862;4.320;2023-08-01T07:44:55;9.02;;;4.72;;
10761;SDS011;5433;50.862;4.320;2023-08-01T07:47:21;12.30;;;5.20;;
10761;SDS011;5433;50.862;4.320;2023-08-01T07:49:48;8.18;;;4.32;;
10761;SDS011;5433;50.862;4.320;2023-08-01T07:52:14;12.02;;;5.07;;
10761;SDS011;5433;50.862;4.320;2023-08-01T07:54:40;10.77;;;4.78;;
10761;SDS011;5433;50.862;4.320;2023-08-01T07:57:06;15.07;;;4.70;;
10761;SDS011;5433;50.862;4.320;2023-08-01T07:59:32;10.52;;;4.63;;
10761;SDS011;5433;50.862;4.320;2023-08-01T08:01:58;11.80;;;4.70;;
10761;SDS011;5433;50.862;4.320;2023-08-01T08:04:24;9.90;;;4.47;;
10761;SDS011;5433;50.862;4.320;2023-08-01T08:06:50;8.57;;;4.55;;
10761;SDS011;5433;50.862;4.320;2023-08-01T08:09:17;11.15;;;4.40;;
10761;SDS011;5433;50.862;4.320;2023-08-01T08:11:43;12.82;;;4.82;;
10761;SDS011;5433;50.862;4.320;2023-08-01T08:14:09;7.93;;;4.05;;
10761;SDS011;5433;50.862;4.320;2023-08-01T08:16:36;14.70;;;4.63;;
10761;SDS011;5433;50.862;4.320;2023-08-01T08:19:02;10.70;;;4.00;;
10761;SDS011;5433;50.862;4.320;2023-08-01T08:21:28;10.80;;;3.58;;
10761;SDS011;5433;50.862;4.320;2023-08-01T08:23:54;11.68;;;3.72;;
10761;SDS011;5433;50.862;4.320;2023-08-01T08:26:20;9.98;;;4.05;;
10761;SDS011;5433;50.862;4.320;2023-08-01T08:28:46;11.75;;;3.88;;
10761;SDS011;5433;50.862;4.320;2023-08-01T08:31:12;11.63;;;3.88;;
10761;SDS011;5433;50.862;4.320;2023-08-01T08:33:38;8.98;;;3.80;;
10761;SDS011;5433;50.862;4.320;2023-08-01T08:36:04;7.22;;;3.47;;
10761;SDS011;5433;50.862;4.320;2023-08-01T08:38:30;10.35;;;3.67;;
10761;SDS011;5433;50.862;4.320;2023-08-01T08:41:14;8.10;;;3.47;;
10761;SDS011;5433;50.862;4.320;2023-08-01T08:43:43;8.80;;;3.40;;
10761;SDS011;5433;50.862;4.320;2023-08-01T08:46:10;8.10;;;3.63;;
10761;SDS011;5433;50.862;4.320;2023-08-01T08:48:36;6.63;;;3.30;;
10761;SDS011;5433;50.862;4.320;2023-08-01T08:51:03;8.27;;;3.13;;
10761;SDS011;5433;50.862;4.320;2023-08-01T08:53:30;6.93;;;2.90;;
10761;SDS011;5433;50.862;4.320;2023-08-01T08:55:57;6.32;;;2.80;;
10761;SDS011;5433;50.862;4.320;2023-08-01T08:58:24;6.43;;;2.63;;
10761;SDS011;5433;50.862;4.320;2023-08-01T09:00:50;5.53;;;2.53;;
10761;SDS011;5433;50.862;4.320;2023-08-01T09:03:16;5.82;;;2.45;;
10761;SDS011;5433;50.862;4.320;2023-08-01T09:05:48;7.60;;;2.70;;
10761;SDS011;5433;50.862;4.320;2023-08-01T09:08:21;5.75;;;2.60;;
10761;SDS011;5433;50.862;4.320;2023-08-01T09:10:49;5.50;;;2.65;;
10761;SDS011;5433;50.862;4.320;2023-08-01T09:13:15;6.03;;;2.72;;
10761;SDS011;5433;50.862;4.320;2023-08-01T09:15:41;10.80;;;3.05;;
10761;SDS011;5433;50.862;4.320;2023-08-01T09:18:10;8.82;;;2.88;;
10761;SDS011;5433;50.862;4.320;2023-08-01T09:20:40;8.20;;;2.50;;
10761;SDS011;5433;50.862;4.320;2023-08-01T09:23:08;6.82;;;2.58;;
10761;SDS011;5433;50.862;4.320;2023-08-01T09:25:37;8.52;;;2.72;;
10761;SDS011;5433;50.862;4.320;2023-08-01T09:28:03;6.45;;;2.50;;
10761;SDS011;5433;50.862;4.320;2023-08-01T09:30:29;7.63;;;2.50;;
10761;SDS011;5433;50.862;4.320;2023-08-01T09:32:56;7.65;;;2.50;;
10761;SDS011;5433;50.862;4.320;2023-08-01T09:35:23;6.10;;;2.38;;
10761;SDS011;5433;50.862;4.320;2023-08-01T09:37:49;5.22;;;2.50;;
10761;SDS011;5433;50.862;4.320;2023-08-01T09:40:15;6.20;;;2.30;;
10761;SDS011;5433;50.862;4.320;2023-08-01T09:42:41;5.03;;;2.10;;
10761;SDS011;5433;50.862;4.320;2023-08-01T09:47:36;5.22;;;2.55;;
10761;SDS011;5433;50.862;4.320;2023-08-01T09:50:02;9.68;;;2.35;;
10761;SDS011;5433;50.862;4.320;2023-08-01T09:52:29;5.32;;;2.45;;
10761;SDS011;5433;50.862;4.320;2023-08-01T09:54:55;6.65;;;2.58;;
10761;SDS011;5433;50.862;4.320;2023-08-01T09:57:21;6.93;;;2.50;;
10761;SDS011;5433;50.862;4.320;2023-08-01T09:59:47;5.22;;;2.47;;
10761;SDS011;5433;50.862;4.320;2023-08-01T10:02:15;6.00;;;2.53;;
10761;SDS011;5433;50.862;4.320;2023-08-01T10:04:41;6.85;;;2.67;;
10761;SDS011;5433;50.862;4.320;2023-08-01T10:07:11;6.93;;;2.63;;
10761;SDS011;5433;50.862;4.320;2023-08-01T10:09:37;4.18;;;2.33;;
10761;SDS011;5433;50.862;4.320;2023-08-01T10:12:04;6.38;;;2.53;;
10761;SDS011;5433;50.862;4.320;2023-08-01T10:14:33;4.93;;;2.40;;
10761;SDS011;5433;50.862;4.320;2023-08-01T10:17:01;5.28;;;2.13;;
10761;SDS011;5433;50.862;4.320;2023-08-01T10:19:28;4.55;;;2.20;;
10761;SDS011;5433;50.862;4.320;2023-08-01T10:21:57;6.10;;;2.58;;
10761;SDS011;5433;50.862;4.320;2023-08-01T10:24:25;3.45;;;2.20;;
10761;SDS011;5433;50.862;4.320;2023-08-01T10:26:51;3.72;;;2.20;;
10761;SDS011;5433;50.862;4.320;2023-08-01T10:29:17;5.20;;;2.60;;
10761;SDS011;5433;50.862;4.320;2023-08-01T10:31:50;4.65;;;2.10;;
10761;SDS011;5433;50.862;4.320;2023-08-01T10:34:17;3.53;;;1.90;;
10761;SDS011;5433;50.862;4.320;2023-08-01T10:36:52;3.72;;;1.80;;
10761;SDS011;5433;50.862;4.320;2023-08-01T10:39:25;5.60;;;2.13;;
10761;SDS011;5433;50.862;4.320;2023-08-01T10:42:04;3.58;;;2.10;;
10761;SDS011;5433;50.862;4.320;2023-08-01T10:44:32;4.03;;;1.88;;
10761;SDS011;5433;50.862;4.320;2023-08-01T10:47:03;7.25;;;2.20;;
10761;SDS011;5433;50.862;4.320;2023-08-01T10:49:36;3.22;;;1.98;;
10761;SDS011;5433;50.862;4.320;2023-08-01T10:52:03;3.28;;;1.70;;
10761;SDS011;5433;50.862;4.320;2023-08-01T10:54:31;7.82;;;2.00;;
10761;SDS011;5433;50.862;4.320;2023-08-01T10:57:06;5.40;;;2.20;;
10761;SDS011;5433;50.862;4.320;2023-08-01T10:59:33;5.43;;;2.15;;
10761;SDS011;5433;50.862;4.320;2023-08-01T11:02:00;7.07;;;1.88;;
10761;SDS011;5433;50.862;4.320;2023-08-01T11:04:26;10.13;;;2.33;;
10761;SDS011;5433;50.862;4.320;2023-08-01T11:06:53;5.95;;;1.75;;
10761;SDS011;5433;50.862;4.320;2023-08-01T11:09:23;4.60;;;2.10;;
10761;SDS011;5433;50.862;4.320;2023-08-01T11:11:50;4.25;;;2.10;;
10761;SDS011;5433;50.862;4.320;2023-08-01T11:14:19;4.30;;;1.70;;
10761;SDS011;5433;50.862;4.320;2023-08-01T11:16:45;4.13;;;1.95;;
10761;SDS011;5433;50.862;4.320;2023-08-01T11:19:29;4.47;;;1.77;;
10761;SDS011;5433;50.862;4.320;2023-08-01T11:21:56;3.63;;;1.80;;
10761;SDS011;5433;50.862;4.320;2023-08-01T11:24:22;5.30;;;2.15;;
10761;SDS011;5433;50.862;4.320;2023-08-01T11:26:49;5.40;;;2.22;;
10761;SDS011;5433;50.862;4.320;2023-08-01T11:29:16;5.70;;;2.10;;
10761;SDS011;5433;50.862;4.320;2023-08-01T11:31:51;4.38;;;1.85;;
10761;SDS011;5433;50.862;4.320;2023-08-01T11:34:17;5.25;;;1.70;;
10761;SDS011;5433;50.862;4.320;2023-08-01T11:36:43;4.20;;;1.90;;
10761;SDS011;5433;50.862;4.320;2023-08-01T11:39:11;4.95;;;1.77;;
10761;SDS011;5433;50.862;4.320;2023-08-01T11:41:38;4.25;;;1.60;;
10761;SDS011;5433;50.862;4.320;2023-08-01T11:44:04;4.03;;;1.80;;
10761;SDS011;5433;50.862;4.320;2023-08-01T11:46:31;3.90;;;1.70;;
10761;SDS011;5433;50.862;4.320;2023-08-01T11:48:58;3.47;;;1.60;;
10761;SDS011;5433;50.862;4.320;2023-08-01T11:51:25;3.47;;;1.40;;
10761;SDS011;5433;50.862;4.320;2023-08-01T11:54:00;3.53;;;1.50;;
10761;SDS011;5433;50.862;4.320;2023-08-01T11:56:27;5.32;;;1.60;;
10761;SDS011;5433;50.862;4.320;2023-08-01T11:58:53;5.53;;;1.70;;
10761;SDS011;5433;50.862;4.320;2023-08-01T12:01:19;5.60;;;1.70;;
10761;SDS011;5433;50.862;4.320;2023-08-01T12:03:49;5.78;;;1.80;;
10761;SDS011;5433;50.862;4.320;2023-08-01T12:06:16;6.18;;;2.10;;
10761;SDS011;5433;50.862;4.320;2023-08-01T12:08:43;7.45;;;2.15;;
10761;SDS011;5433;50.862;4.320;2023-08-01T12:11:25;7.88;;;1.80;;
10761;SDS011;5433;50.862;4.320;2023-08-01T12:14:12;4.57;;;2.00;;
10761;SDS011;5433;50.862;4.320;2023-08-01T12:16:39;5.90;;;1.75;;
10761;SDS011;5433;50.862;4.320;2023-08-01T12:19:06;4.43;;;1.83;;
10761;SDS011;5433;50.862;4.320;2023-08-01T12:21:32;3.92;;;1.70;;
10761;SDS011;5433;50.862;4.320;2023-08-01T12:23:59;3.38;;;1.67;;
10761;SDS011;5433;50.862;4.320;2023-08-01T12:26:25;6.18;;;1.70;;
10761;SDS011;5433;50.862;4.320;2023-08-01T12:32:09;3.35;;;1.58;;
10761;SDS011;5433;50.862;4.320;2023-08-01T12:34:35;4.97;;;1.90;;
10761;SDS011;5433;50.862;4.320;2023-08-01T12:37:01;5.15;;;1.77;;
10761;SDS011;5433;50.862;4.320;2023-08-01T12:39:27;4.10;;;1.70;;
10761;SDS011;5433;50.862;4.320;2023-08-01T12:41:54;3.15;;;1.45;;
10761;SDS011;5433;50.862;4.320;2023-08-01T12:44:20;3.67;;;1.75;;
10761;SDS011;5433;50.862;4.320;2023-08-01T12:46:46;4.53;;;1.50;;
10761;SDS011;5433;50.862;4.320;2023-08-01T12:49:12;4.13;;;1.45;;
10761;SDS011;5433;50.862;4.320;2023-08-01T12:51:38;3.95;;;1.65;;
10761;SDS011;5433;50.862;4.320;2023-08-01T12:54:04;3.58;;;1.55;;
10761;SDS011;5433;50.862;4.320;2023-08-01T12:56:31;3.80;;;1.65;;
10761;SDS011;5433;50.862;4.320;2023-08-01T12:58:57;5.07;;;1.75;;
10761;SDS011;5433;50.862;4.320;2023-08-01T13:01:23;2.70;;;1.50;;
10761;SDS011;5433;50.862;4.320;2023-08-01T13:03:49;7.72;;;1.70;;
10761;SDS011;5433;50.862;4.320;2023-08-01T13:06:15;3.55;;;1.60;;
10761;SDS011;5433;50.862;4.320;2023-08-01T13:08:42;3.65;;;1.70;;
10761;SDS011;5433;50.862;4.320;2023-08-01T13:11:14;3.92;;;1.30;;
10761;SDS011;5433;50.862;4.320;2023-08-01T13:13:41;4.75;;;1.48;;
10761;SDS011;5433;50.862;4.320;2023-08-01T13:16:07;5.10;;;1.60;;
10761;SDS011;5433;50.862;4.320;2023-08-01T13:18:33;4.65;;;1.70;;
10761;SDS011;5433;50.862;4.320;2023-08-01T13:21:00;4.97;;;1.80;;
10761;SDS011;5433;50.862;4.320;2023-08-01T13:23:26;4.95;;;1.83;;
10761;SDS011;5433;50.862;4.320;2023-08-01T13:25:53;3.97;;;1.70;;
10761;SDS011;5433;50.862;4.320;2023-08-01T13:28:19;5.88;;;2.00;;
10761;SDS011;5433;50.862;4.320;2023-08-01T13:30:45;6.45;;;2.08;;
10761;SDS011;5433;50.862;4.320;2023-08-01T13:33:11;7.10;;;1.92;;
10761;SDS011;5433;50.862;4.320;2023-08-01T13:35:37;4.45;;;1.80;;
10761;SDS011;5433;50.862;4.320;2023-08-01T13:38:03;5.70;;;1.90;;
10761;SDS011;5433;50.862;4.320;2023-08-01T13:40:30;5.97;;;2.03;;
10761;SDS011;5433;50.862;4.320;2023-08-01T13:42:56;11.38;;;2.00;;
10761;SDS011;5433;50.862;4.320;2023-08-01T13:45:22;7.63;;;2.05;;
10761;SDS011;5433;50.862;4.320;2023-08-01T13:47:48;7.43;;;1.85;;
10761;SDS011;5433;50.862;4.320;2023-08-01T13:50:14;4.07;;;1.83;;
10761;SDS011;5433;50.862;4.320;2023-08-01T13:52:41;6.40;;;1.90;;
10761;SDS011;5433;50.862;4.320;2023-08-01T13:55:07;7.15;;;1.92;;
10761;SDS011;5433;50.862;4.320;2023-08-01T13:57:34;5.43;;;1.95;;
10761;SDS011;5433;50.862;4.320;2023-08-01T14:00:00;3.60;;;1.80;;
10761;SDS011;5433;50.862;4.320;2023-08-01T14:02:26;4.47;;;1.95;;
10761;SDS011;5433;50.862;4.320;2023-08-01T14:04:54;3.58;;;1.63;;
10761;SDS011;5433;50.862;4.320;2023-08-01T14:07:20;3.72;;;1.77;;
10761;SDS011;5433;50.862;4.320;2023-08-01T14:09:46;5.32;;;1.65;;
10761;SDS011;5433;50.862;4.320;2023-08-01T14:12:12;3.97;;;1.55;;
10761;SDS011;5433;50.862;4.320;2023-08-01T14:14:41;7.88;;;1.60;;
10761;SDS011;5433;50.862;4.320;2023-08-01T14:17:07;2.92;;;1.30;;
10761;SDS011;5433;50.862;4.320;2023-08-01T14:19:33;4.07;;;1.30;;
10761;SDS011;5433;50.862;4.320;2023-08-01T14:21:59;4.22;;;1.23;;
10761;SDS011;5433;50.862;4.320;2023-08-01T14:24:25;4.30;;;1.50;;
10761;SDS011;5433;50.862;4.320;2023-08-01T14:26:51;9.07;;;1.83;;
10761;SDS011;5433;50.862;4.320;2023-08-01T14:29:18;6.57;;;1.83;;
10761;SDS011;5433;50.862;4.320;2023-08-01T14:31:47;7.88;;;1.98;;
10761;SDS011;5433;50.862;4.320;2023-08-01T14:34:13;5.70;;;1.85;;
10761;SDS011;5433;50.862;4.320;2023-08-01T14:36:39;2.83;;;1.30;;
10761;SDS011;5433;50.862;4.320;2023-08-01T14:39:08;4.28;;;1.52;;
10761;SDS011;5433;50.862;4.320;2023-08-01T14:41:34;5.28;;;1.80;;
10761;SDS011;5433;50.862;4.320;2023-08-01T14:44:00;3.90;;;1.80;;
10761;SDS011;5433;50.862;4.320;2023-08-01T14:46:26;5.85;;;1.75;;
10761;SDS011;5433;50.862;4.320;2023-08-01T14:48:52;5.72;;;1.80;;
10761;SDS011;5433;50.862;4.320;2023-08-01T14:51:18;9.18;;;2.17;;
10761;SDS011;5433;50.862;4.320;2023-08-01T14:53:44;6.20;;;1.88;;
10761;SDS011;5433;50.862;4.320;2023-08-01T14:56:10;6.63;;;1.88;;
10761;SDS011;5433;50.862;4.320;2023-08-01T14:58:36;4.40;;;1.63;;